KAHN

Athens / Ben Epps Airport

Athens, Georgia, USA
METAR KAHN 221751Z 08009KT 10SM OVC028 04/M14 A3055 RMK AO2 SLP355 T00441144 10044 21039 58016
Observed Flight Rules
Jan-22 @ 17:51 UTC (60 minutes ago) Marginal Visual Flight Rules
Wind Visibility Clouds
80° at 9 knots 10 miles
  • Overcast at 2,800' AGL
Temperatures Readings
Current 4°C / 39°F
Dewpoint -14°C / 7°F
Humidity 26%
Altimeter 30.55" Hg
Pressure 1035.5 hPa
Elevation 244
METAR KAHN 221751Z 08009KT 10SM OVC028 04/M14 A3055 RMK AO2 SLP355 T00441144 10044 21039 58016
Observed Flight Rules
Jan-22 @ 17:51 UTC
(60 minutes ago)
MVFR
Wind Visibility
80° at 9 knots 10 miles
Clouds
  • Overcast at 2,800' AGL
Temperature Dewpoint
4°C / 39°F -14°C / 7°F
Humidity Altimeter Pressure
26% 30.55" Hg 1035.5 hPa